createdAt,value
2022-11-16T00:01:03.752Z,12.42
2022-11-16T00:03:30.650Z,12.27
2022-11-16T00:05:57.717Z,12.28
2022-11-16T00:08:23.986Z,12.27
2022-11-16T00:10:50.318Z,12.11
2022-11-16T00:13:16.627Z,12.04
2022-11-16T00:15:42.912Z,12.15
2022-11-16T00:18:09.197Z,12.14
2022-11-16T00:20:35.470Z,12.07
2022-11-16T00:23:01.732Z,12.25
2022-11-16T00:25:28.006Z,12.12
2022-11-16T00:27:54.279Z,12.09
2022-11-16T00:30:20.551Z,12.12
2022-11-16T00:32:46.815Z,12.17
2022-11-16T00:35:13.072Z,12.19
2022-11-16T00:37:39.351Z,12.01
2022-11-16T00:40:05.963Z,11.65
2022-11-16T00:42:32.244Z,11.73
2022-11-16T00:44:58.514Z,11.61
2022-11-16T00:47:24.791Z,11.50
2022-11-16T00:49:51.063Z,11.49
2022-11-16T00:52:17.344Z,11.39
2022-11-16T00:54:43.628Z,11.49
2022-11-16T00:57:09.951Z,11.17
2022-11-16T00:59:36.215Z,11.23
2022-11-16T01:02:02.477Z,11.44
2022-11-16T01:04:28.850Z,11.57
2022-11-16T01:06:55.209Z,11.46
2022-11-16T01:09:21.515Z,11.64
2022-11-16T01:12:06.371Z,11.45
2022-11-16T01:14:32.640Z,11.49
2022-11-16T01:16:58.945Z,11.54
2022-11-16T01:19:25.229Z,11.17
2022-11-16T01:21:51.494Z,11.18
2022-11-16T01:24:17.770Z,11.49
2022-11-16T01:26:44.050Z,11.63
2022-11-16T01:29:10.342Z,11.55
2022-11-16T01:31:36.643Z,11.40
2022-11-16T01:34:02.934Z,11.21
2022-11-16T01:36:29.204Z,11.30
2022-11-16T01:38:55.503Z,11.20
2022-11-16T01:41:22.683Z,11.30
2022-11-16T01:43:55.050Z,11.52
2022-11-16T01:46:21.391Z,11.53
2022-11-16T01:48:47.814Z,11.44
2022-11-16T01:51:14.093Z,11.56
2022-11-16T01:53:40.412Z,11.45
2022-11-16T01:56:08.230Z,11.50
2022-11-16T01:58:34.772Z,11.51
2022-11-16T02:01:01.420Z,11.29
2022-11-16T02:03:27.752Z,11.30
2022-11-16T02:06:06.362Z,11.30
2022-11-16T02:08:54.341Z,11.16
2022-11-16T02:11:27.444Z,11.11
2022-11-16T02:14:08.905Z,11.32
2022-11-16T02:16:39.172Z,11.28
2022-11-16T02:19:20.811Z,11.36
2022-11-16T02:21:51.277Z,11.27
2022-11-16T02:24:30.217Z,11.32
2022-11-16T02:27:07.798Z,11.26
2022-11-16T02:29:35.325Z,11.43
2022-11-16T02:32:27.675Z,11.47
2022-11-16T02:34:53.888Z,11.18
2022-11-16T02:37:20.646Z,11.35
2022-11-16T02:39:47.799Z,10.58
2022-11-16T02:42:15.403Z,10.33
2022-11-16T02:44:42.507Z,10.39
2022-11-16T02:47:09.963Z,9.96
2022-11-16T02:49:36.878Z,10.12
2022-11-16T02:52:03.156Z,10.33
2022-11-16T02:54:29.438Z,10.75
2022-11-16T02:56:57.386Z,10.94
2022-11-16T02:59:24.260Z,11.28
2022-11-16T03:02:13.537Z,11.35
2022-11-16T03:04:41.308Z,11.43
2022-11-16T03:07:07.623Z,11.16
2022-11-16T03:09:34.144Z,10.95
2022-11-16T03:12:00.986Z,11.13
2022-11-16T03:14:30.227Z,11.27
2022-11-16T03:16:57.408Z,11.14
2022-11-16T03:19:25.966Z,11.12
2022-11-16T03:21:55.564Z,11.25
2022-11-16T03:24:21.843Z,11.11
2022-11-16T03:26:53.355Z,11.29
2022-11-16T03:29:28.822Z,11.25
2022-11-16T03:31:56.466Z,11.29
2022-11-16T03:34:22.773Z,11.26
2022-11-16T03:36:49.070Z,11.47
2022-11-16T03:39:23.483Z,11.39
2022-11-16T03:41:49.749Z,11.42
2022-11-16T03:44:16.017Z,11.38
2022-11-16T03:46:42.613Z,11.41
2022-11-16T03:49:08.954Z,11.55
2022-11-16T03:51:35.283Z,11.38
2022-11-16T03:54:01.614Z,11.24
2022-11-16T03:56:27.874Z,11.05
2022-11-16T03:58:55.895Z,10.95
2022-11-16T04:01:22.288Z,10.87
2022-11-16T04:03:48.620Z,10.96
2022-11-16T04:06:33.407Z,10.98
2022-11-16T04:09:18.151Z,10.85
2022-11-16T04:12:02.796Z,10.75
2022-11-16T04:14:47.677Z,10.80
2022-11-16T04:17:32.937Z,10.52
2022-11-16T04:20:17.689Z,10.35
2022-11-16T04:23:05.615Z,10.52
2022-11-16T04:25:32.025Z,10.56
2022-11-16T04:28:13.564Z,10.49
2022-11-16T04:31:02.097Z,10.57
2022-11-16T04:33:47.633Z,10.39
2022-11-16T04:36:32.781Z,10.29
2022-11-16T04:38:59.037Z,10.27
2022-11-16T04:41:43.794Z,10.30
2022-11-16T04:44:10.125Z,10.13
2022-11-16T04:46:54.723Z,10.17
2022-11-16T04:49:20.992Z,9.65
2022-11-16T04:51:47.294Z,9.63
2022-11-16T04:54:13.587Z,9.73
2022-11-16T04:56:39.866Z,9.71
2022-11-16T04:59:06.129Z,9.67
2022-11-16T05:01:51.213Z,9.66
2022-11-16T05:04:17.522Z,9.90
2022-11-16T05:06:43.799Z,10.28
2022-11-16T05:09:10.079Z,10.43
2022-11-16T05:11:36.351Z,10.03
2022-11-16T05:14:02.631Z,10.21
2022-11-16T05:16:28.919Z,10.29
2022-11-16T05:19:13.939Z,10.14
2022-11-16T05:21:40.330Z,10.26
2022-11-16T05:24:25.163Z,10.43
2022-11-16T05:26:51.440Z,10.40
2022-11-16T05:29:17.712Z,10.30
2022-11-16T05:31:43.974Z,9.93
2022-11-16T05:34:10.349Z,9.97
2022-11-16T05:36:36.644Z,9.97
2022-11-16T05:39:02.931Z,10.00
2022-11-16T05:41:29.193Z,9.91
2022-11-16T05:43:55.973Z,9.86
2022-11-16T05:46:22.603Z,9.95
2022-11-16T05:48:48.945Z,10.10
2022-11-16T05:51:15.215Z,10.10
2022-11-16T05:53:41.479Z,10.17
2022-11-16T05:56:07.946Z,10.10
2022-11-16T05:58:34.578Z,9.74
2022-11-16T06:01:01.018Z,9.94
2022-11-16T06:03:30.303Z,9.98
2022-11-16T06:05:56.798Z,9.72
2022-11-16T06:08:23.105Z,9.60
2022-11-16T06:10:49.373Z,9.59
2022-11-16T06:13:15.633Z,9.81
2022-11-16T06:15:41.895Z,9.88
2022-11-16T06:18:08.184Z,9.81
2022-11-16T06:20:34.453Z,9.93
2022-11-16T06:23:00.731Z,9.99
2022-11-16T06:25:27.000Z,9.72
2022-11-16T06:27:53.265Z,9.45
2022-11-16T06:30:19.556Z,9.54
2022-11-16T06:32:45.866Z,9.62
2022-11-16T06:35:12.140Z,9.71
2022-11-16T06:37:38.414Z,9.63
2022-11-16T06:40:05.013Z,9.21
2022-11-16T06:42:31.273Z,9.01
2022-11-16T06:44:57.550Z,8.94
2022-11-16T06:47:23.820Z,8.73
2022-11-16T06:49:50.140Z,8.55
2022-11-16T06:52:16.427Z,8.72
2022-11-16T06:54:42.704Z,9.04
2022-11-16T06:57:08.979Z,9.31
2022-11-16T06:59:35.424Z,9.36
2022-11-16T07:02:01.730Z,9.26
2022-11-16T07:04:28.060Z,9.49
2022-11-16T07:06:54.387Z,9.45
2022-11-16T07:09:20.747Z,9.55
2022-11-16T07:11:47.021Z,9.44
2022-11-16T07:14:13.482Z,9.83
2022-11-16T07:16:39.833Z,9.61
2022-11-16T07:19:06.114Z,9.56
2022-11-16T07:21:32.433Z,9.71
2022-11-16T07:23:58.706Z,9.66
2022-11-16T07:26:25.033Z,9.73
2022-11-16T07:28:51.307Z,9.78
2022-11-16T07:31:18.164Z,9.52
2022-11-16T07:33:44.424Z,9.51
2022-11-16T07:36:11.829Z,9.34
2022-11-16T07:38:38.105Z,9.40
2022-11-16T07:41:11.170Z,9.66
2022-11-16T07:43:37.694Z,9.69
2022-11-16T07:46:44.701Z,9.66
2022-11-16T07:48:54.147Z,9.57
2022-11-16T07:51:20.414Z,9.40
2022-11-16T07:53:46.709Z,9.59
2022-11-16T07:56:13.002Z,9.81
2022-11-16T07:58:39.386Z,10.01
2022-11-16T08:01:06.097Z,10.13
2022-11-16T08:03:32.600Z,10.05
2022-11-16T08:05:59.924Z,10.25
2022-11-16T08:08:26.203Z,10.45
2022-11-16T08:10:52.491Z,10.37
2022-11-16T08:13:18.769Z,10.41
2022-11-16T08:15:45.041Z,10.53
2022-11-16T08:18:11.323Z,10.47
2022-11-16T08:20:37.594Z,10.35
2022-11-16T08:23:03.933Z,10.61
2022-11-16T08:25:30.246Z,10.71
2022-11-16T08:27:56.523Z,10.49
2022-11-16T08:30:22.817Z,10.32
2022-11-16T08:32:49.127Z,10.26
2022-11-16T08:35:15.470Z,10.18
2022-11-16T08:37:41.813Z,10.48
2022-11-16T08:40:08.250Z,10.64
2022-11-16T08:42:37.247Z,10.83
2022-11-16T08:45:07.359Z,10.77
2022-11-16T08:47:33.651Z,10.75
2022-11-16T08:50:00.033Z,10.97
2022-11-16T08:52:26.311Z,11.01
2022-11-16T08:54:52.649Z,10.60
2022-11-16T08:57:18.920Z,10.42
2022-11-16T08:59:45.191Z,10.14
2022-11-16T09:02:11.558Z,10.01
2022-11-16T09:04:37.886Z,10.06
2022-11-16T09:07:04.241Z,10.37
2022-11-16T09:09:30.599Z,10.33
2022-11-16T09:11:56.870Z,10.33
2022-11-16T09:14:23.201Z,10.25
2022-11-16T09:16:49.466Z,10.25
2022-11-16T09:19:15.867Z,10.28
2022-11-16T09:21:42.201Z,10.31
2022-11-16T09:24:08.743Z,10.40
2022-11-16T09:26:35.016Z,10.73
2022-11-16T09:29:03.012Z,10.99
2022-11-16T09:31:29.309Z,11.01
2022-11-16T09:33:58.130Z,11.08
2022-11-16T09:36:24.903Z,10.81
2022-11-16T09:41:53.861Z,10.30
2022-11-16T09:44:25.872Z,10.25
2022-11-16T09:46:56.203Z,10.26
2022-11-16T09:49:26.948Z,10.49
2022-11-16T09:51:53.874Z,10.57
2022-11-16T09:54:21.127Z,10.77
2022-11-16T09:56:47.560Z,10.88
2022-11-16T09:59:27.232Z,10.83
2022-11-16T10:02:01.965Z,10.72
2022-11-16T10:04:43.586Z,10.61
2022-11-16T10:07:14.895Z,10.89
2022-11-16T10:09:41.341Z,11.10
2022-11-16T10:12:10.036Z,11.13
2022-11-16T10:14:51.897Z,11.02
2022-11-16T10:17:30.254Z,10.66
2022-11-16T10:19:57.526Z,10.63
2022-11-16T10:22:29.856Z,10.49
2022-11-16T10:25:08.853Z,10.43
2022-11-16T10:27:42.518Z,10.39
2022-11-16T10:30:08.888Z,10.65
2022-11-16T10:32:46.078Z,10.73
2022-11-16T10:35:15.024Z,11.16
2022-11-16T10:37:44.221Z,11.29
2022-11-16T10:40:20.486Z,11.42
2022-11-16T10:42:48.798Z,11.32
2022-11-16T10:45:17.496Z,11.43
2022-11-16T10:47:46.701Z,11.38
2022-11-16T10:50:16.033Z,10.89
2022-11-16T10:52:42.304Z,10.70
2022-11-16T10:55:12.708Z,10.97
2022-11-16T10:57:58.658Z,11.18
2022-11-16T11:00:34.666Z,11.23
2022-11-16T11:03:00.991Z,10.93
2022-11-16T11:05:27.322Z,10.74
2022-11-16T11:08:07.647Z,10.59
2022-11-16T11:10:33.912Z,10.71
2022-11-16T11:13:04.596Z,11.08
2022-11-16T11:15:30.909Z,11.24
2022-11-16T11:18:20.231Z,11.45
2022-11-16T11:20:47.327Z,11.72
2022-11-16T11:23:23.834Z,11.81
2022-11-16T11:25:51.337Z,11.76
2022-11-16T11:28:28.443Z,11.63
2022-11-16T11:31:05.582Z,11.42
2022-11-16T11:33:36.095Z,11.38
2022-11-16T11:36:04.350Z,11.30
2022-11-16T11:38:30.921Z,11.25
2022-11-16T11:41:00.026Z,11.48
2022-11-16T11:43:26.450Z,11.65
2022-11-16T11:45:52.675Z,11.86
2022-11-16T11:48:25.411Z,11.90
2022-11-16T11:51:01.034Z,11.97
2022-11-16T11:53:27.276Z,11.88
2022-11-16T11:55:58.012Z,11.60
2022-11-16T11:58:31.118Z,11.84
2022-11-16T12:01:03.338Z,12.10
2022-11-16T12:03:49.834Z,12.34
2022-11-16T12:06:48.617Z,12.49
2022-11-16T12:09:28.014Z,12.54
2022-11-16T12:11:57.974Z,12.35
2022-11-16T12:14:34.405Z,12.12
2022-11-16T12:17:27.032Z,11.84
2022-11-16T12:20:12.316Z,11.71
2022-11-16T12:22:41.418Z,11.82
2022-11-16T12:25:10.711Z,11.80
2022-11-16T12:27:55.993Z,11.77
2022-11-16T12:30:22.255Z,11.89
2022-11-16T12:32:51.911Z,11.94
2022-11-16T12:35:19.183Z,12.11
2022-11-16T12:38:04.028Z,12.19
2022-11-16T12:40:33.350Z,12.27
2022-11-16T12:43:01.994Z,12.50
2022-11-16T12:45:32.877Z,12.55
2022-11-16T12:47:59.178Z,12.58
2022-11-16T12:50:34.511Z,12.18
2022-11-16T12:53:00.805Z,12.12
2022-11-16T12:55:45.383Z,12.31
2022-11-16T12:58:20.815Z,12.32
2022-11-16T13:00:59.749Z,12.18
2022-11-16T13:03:32.460Z,12.30
2022-11-16T13:06:02.579Z,12.23
2022-11-16T13:08:35.031Z,12.34
2022-11-16T13:11:04.769Z,12.45
2022-11-16T13:13:38.598Z,12.43
2022-11-16T13:16:05.338Z,12.48
2022-11-16T13:18:31.824Z,12.42
2022-11-16T13:20:58.046Z,12.31
2022-11-16T13:23:30.474Z,12.37
2022-11-16T13:25:56.684Z,12.37
2022-11-16T13:28:30.622Z,12.38
2022-11-16T13:31:04.587Z,12.01
2022-11-16T13:33:49.325Z,11.76
2022-11-16T13:36:32.126Z,11.63
2022-11-16T13:38:58.404Z,11.45
2022-11-16T13:41:29.136Z,11.62
2022-11-16T13:43:55.456Z,12.02
2022-11-16T13:46:53.702Z,11.90
2022-11-16T13:49:18.848Z,12.16
2022-11-16T13:51:50.103Z,12.20
2022-11-16T13:54:44.741Z,11.94
2022-11-16T13:57:03.880Z,11.96
2022-11-16T13:59:30.793Z,11.99
2022-11-16T14:01:58.342Z,12.12
2022-11-16T14:04:54.525Z,12.32
2022-11-16T14:07:27.920Z,12.21
2022-11-16T14:09:54.325Z,12.27
2022-11-16T14:12:38.998Z,12.13
2022-11-16T14:15:11.327Z,11.93
2022-11-16T14:17:49.743Z,11.85
2022-11-16T14:20:22.094Z,11.66
2022-11-16T14:23:00.759Z,11.75
2022-11-16T14:25:31.831Z,11.59
2022-11-16T14:27:58.065Z,11.83
2022-11-16T14:30:31.095Z,11.97
2022-11-16T14:32:57.378Z,12.08
2022-11-16T14:35:31.875Z,11.82
2022-11-16T14:38:02.306Z,11.96
2022-11-16T14:40:28.649Z,12.08
2022-11-16T14:43:15.831Z,12.20
2022-11-16T14:45:43.355Z,12.01
2022-11-16T14:48:14.451Z,11.94
2022-11-16T14:50:41.640Z,11.98
2022-11-16T14:53:08.716Z,12.10
2022-11-16T14:55:40.282Z,12.33
2022-11-16T14:58:24.437Z,12.35
2022-11-16T15:00:53.970Z,12.21
2022-11-16T15:03:21.341Z,12.08
2022-11-16T15:05:47.718Z,11.57
2022-11-16T15:08:15.597Z,11.20
2022-11-16T15:10:45.930Z,11.00
2022-11-16T15:13:19.542Z,10.99
2022-11-16T15:15:45.893Z,11.36
2022-11-16T15:18:13.040Z,11.32
2022-11-16T15:20:46.630Z,11.51
2022-11-16T15:23:13.519Z,11.54
2022-11-16T15:25:43.643Z,11.64
2022-11-16T15:28:13.901Z,11.70
2022-11-16T15:30:40.397Z,11.64
2022-11-16T15:33:16.581Z,11.75
2022-11-16T15:35:42.861Z,11.70
2022-11-16T15:38:16.474Z,11.51
2022-11-16T15:40:42.873Z,11.59
2022-11-16T15:43:09.681Z,11.78
2022-11-16T15:45:35.946Z,11.76
2022-11-16T15:48:03.233Z,11.81
2022-11-16T15:50:29.578Z,11.83
2022-11-16T15:52:56.166Z,11.70
2022-11-16T15:55:33.334Z,11.43
2022-11-16T15:58:03.990Z,11.31
2022-11-16T16:00:30.577Z,10.93
2022-11-16T16:02:59.939Z,10.78
2022-11-16T16:05:36.647Z,10.85
2022-11-16T16:08:03.673Z,10.84
2022-11-16T16:10:29.983Z,10.92
2022-11-16T16:12:56.759Z,11.06
2022-11-16T16:15:26.048Z,10.68
2022-11-16T16:17:55.563Z,10.95
2022-11-16T16:20:22.649Z,10.57
2022-11-16T16:22:48.966Z,10.36
2022-11-16T16:25:28.531Z,10.01
2022-11-16T16:27:54.818Z,9.94
2022-11-16T16:30:21.163Z,10.13
2022-11-16T16:32:48.201Z,10.46
2022-11-16T16:35:18.472Z,10.47
2022-11-16T16:37:44.801Z,10.67
2022-11-16T16:40:11.120Z,10.59
2022-11-16T16:42:37.466Z,10.50
2022-11-16T16:45:03.812Z,10.52
2022-11-16T16:47:30.235Z,10.42
2022-11-16T16:49:56.499Z,10.42
2022-11-16T16:52:23.103Z,10.29
2022-11-16T16:54:49.380Z,10.17
2022-11-16T16:57:15.916Z,10.15
2022-11-16T16:59:44.873Z,9.92
2022-11-16T17:02:11.671Z,9.94
2022-11-16T17:04:38.031Z,9.54
2022-11-16T17:07:04.329Z,9.74
2022-11-16T17:09:30.669Z,10.00
2022-11-16T17:11:56.953Z,9.97
2022-11-16T17:14:24.497Z,10.16
2022-11-16T17:16:51.194Z,10.28
2022-11-16T17:19:17.558Z,10.22
2022-11-16T17:21:43.915Z,10.01
2022-11-16T17:24:10.244Z,10.20
2022-11-16T17:26:36.668Z,10.06
2022-11-16T17:29:02.938Z,10.13
2022-11-16T17:31:29.211Z,10.21
2022-11-16T17:33:57.323Z,10.28
2022-11-16T17:36:23.597Z,10.16
2022-11-16T17:38:49.936Z,10.22
2022-11-16T17:41:19.413Z,10.09
2022-11-16T17:43:45.891Z,9.81
2022-11-16T17:46:12.980Z,9.75
2022-11-16T17:48:39.891Z,9.89
2022-11-16T17:51:06.287Z,9.99
2022-11-16T17:53:33.180Z,9.95
2022-11-16T17:55:59.500Z,9.79
2022-11-16T17:58:25.794Z,9.72
2022-11-16T18:00:52.135Z,9.83
2022-11-16T18:03:18.546Z,9.80
2022-11-16T18:05:44.809Z,9.47
2022-11-16T18:08:11.076Z,9.61
2022-11-16T18:10:37.992Z,9.52
2022-11-16T18:13:06.537Z,9.65
2022-11-16T18:15:37.765Z,9.70
2022-11-16T18:18:07.205Z,9.75
2022-11-16T18:20:35.080Z,9.83
2022-11-16T18:23:01.386Z,9.82
2022-11-16T18:25:27.690Z,9.79
2022-11-16T18:27:59.876Z,9.93
2022-11-16T18:30:26.146Z,9.73
2022-11-16T18:32:52.460Z,9.92
2022-11-16T18:35:18.787Z,9.72
2022-11-16T18:37:45.105Z,9.52
2022-11-16T18:40:12.042Z,9.68
2022-11-16T18:42:38.645Z,9.87
2022-11-16T18:45:05.138Z,9.94
2022-11-16T18:47:31.545Z,9.90
2022-11-16T18:49:57.829Z,9.86
2022-11-16T18:52:24.172Z,9.96
2022-11-16T18:54:50.507Z,9.65
2022-11-16T18:57:16.793Z,9.47
2022-11-16T18:59:43.078Z,9.63
2022-11-16T19:02:11.185Z,9.66
2022-11-16T19:04:39.915Z,9.60
2022-11-16T19:07:06.977Z,9.33
2022-11-16T19:09:33.312Z,9.38
2022-11-16T19:11:59.608Z,9.38
2022-11-16T19:14:25.893Z,9.35
2022-11-16T19:16:56.971Z,9.23
2022-11-16T19:19:24.181Z,9.40
2022-11-16T19:21:51.772Z,9.42
2022-11-16T19:24:18.060Z,9.27
2022-11-16T19:26:44.440Z,9.16
2022-11-16T19:29:10.724Z,9.10
2022-11-16T19:31:37.031Z,9.07
2022-11-16T19:34:05.030Z,9.09
2022-11-16T19:36:31.716Z,9.17
2022-11-16T19:38:57.978Z,9.31
2022-11-16T19:41:24.262Z,9.19
2022-11-16T19:43:56.896Z,9.10
2022-11-16T19:46:24.347Z,9.18
2022-11-16T19:48:50.930Z,9.17
2022-11-16T19:51:43.529Z,9.30
2022-11-16T19:54:13.720Z,9.41
2022-11-16T19:56:40.152Z,9.33
2022-11-16T19:59:06.442Z,9.10
2022-11-16T20:01:32.762Z,8.82
2022-11-16T20:03:59.647Z,8.93
2022-11-16T20:06:28.020Z,8.74
2022-11-16T20:09:01.976Z,8.79
2022-11-16T20:11:28.835Z,8.80
2022-11-16T20:13:55.709Z,8.95
2022-11-16T20:16:26.166Z,9.15
2022-11-16T20:18:52.455Z,9.25
2022-11-16T20:21:22.662Z,9.19
2022-11-16T20:23:49.260Z,9.42
2022-11-16T20:26:15.556Z,9.43
2022-11-16T20:28:42.705Z,9.35
2022-11-16T20:31:10.816Z,9.33
2022-11-16T20:33:37.414Z,9.33
2022-11-16T20:36:04.457Z,8.98
2022-11-16T20:38:34.042Z,9.07
2022-11-16T20:41:26.434Z,9.30
2022-11-16T20:43:53.777Z,9.27
2022-11-16T20:46:20.588Z,9.30
2022-11-16T20:48:46.862Z,9.50
2022-11-16T20:51:14.554Z,9.51
2022-11-16T20:53:40.862Z,9.47
2022-11-16T20:56:10.088Z,9.54
2022-11-16T20:58:36.579Z,9.68
2022-11-16T21:01:06.575Z,9.84
2022-11-16T21:03:33.245Z,9.93
2022-11-16T21:05:59.768Z,9.76
2022-11-16T21:08:26.045Z,9.59
2022-11-16T21:10:52.556Z,9.90
2022-11-16T21:13:38.015Z,9.91
2022-11-16T21:16:05.527Z,9.83
2022-11-16T21:18:31.789Z,9.98
2022-11-16T21:21:01.504Z,9.95
2022-11-16T21:23:28.022Z,10.03
2022-11-16T21:25:54.428Z,10.02
2022-11-16T21:28:25.307Z,10.05
2022-11-16T21:30:55.940Z,9.84
2022-11-16T21:33:22.260Z,9.88
2022-11-16T21:35:48.539Z,9.89
2022-11-16T21:38:14.832Z,9.80
2022-11-16T21:40:41.104Z,9.99
2022-11-16T21:43:07.379Z,10.08
2022-11-16T21:45:35.107Z,10.18
2022-11-16T21:48:01.385Z,10.33
2022-11-16T21:50:32.151Z,10.42
2022-11-16T21:52:59.750Z,10.40
2022-11-16T21:55:26.120Z,10.19
2022-11-16T21:57:52.390Z,10.06
2022-11-16T22:00:19.115Z,9.90
2022-11-16T22:02:45.402Z,10.05
2022-11-16T22:05:30.457Z,9.81
2022-11-16T22:07:56.724Z,9.81
2022-11-16T22:10:22.983Z,9.92
2022-11-16T22:12:49.257Z,9.86
2022-11-16T22:15:15.608Z,9.83
2022-11-16T22:17:45.023Z,9.91
2022-11-16T22:20:11.472Z,10.05
2022-11-16T22:22:37.754Z,10.13
2022-11-16T22:25:04.380Z,10.08
2022-11-16T22:27:30.663Z,10.03
2022-11-16T22:29:56.971Z,10.29
2022-11-16T22:32:23.432Z,10.62
2022-11-16T22:34:51.243Z,10.71
2022-11-16T22:37:17.640Z,10.60
2022-11-16T22:39:44.100Z,10.64
2022-11-16T22:42:11.343Z,10.43
2022-11-16T22:44:37.626Z,10.53
2022-11-16T22:47:03.892Z,10.50
2022-11-16T22:49:30.161Z,10.44
2022-11-16T22:51:56.426Z,10.45
2022-11-16T22:54:28.351Z,10.63
2022-11-16T22:56:54.974Z,10.75
2022-11-16T22:59:21.239Z,10.78
2022-11-16T23:01:47.513Z,10.82
2022-11-16T23:04:13.815Z,10.68
2022-11-16T23:06:40.291Z,10.59
2022-11-16T23:09:06.761Z,10.70
2022-11-16T23:11:51.435Z,10.90
2022-11-16T23:14:36.581Z,11.00
2022-11-16T23:17:02.894Z,10.94
2022-11-16T23:19:47.981Z,10.86
2022-11-16T23:22:33.741Z,10.69
2022-11-16T23:25:18.628Z,10.81
2022-11-16T23:28:02.101Z,10.84
2022-11-16T23:30:28.442Z,10.89
2022-11-16T23:32:54.747Z,10.70
2022-11-16T23:35:21.095Z,10.97
2022-11-16T23:38:00.240Z,11.08
2022-11-16T23:40:27.372Z,11.03
2022-11-16T23:43:12.122Z,10.92
2022-11-16T23:45:38.680Z,10.70
2022-11-16T23:48:05.736Z,10.88
2022-11-16T23:50:32.035Z,10.72
2022-11-16T23:52:58.319Z,10.76
2022-11-16T23:55:24.623Z,10.82
2022-11-16T23:57:50.978Z,10.77
